createdAt,value
2019-01-22T00:01:43.447Z,-4.94
2019-01-22T00:04:19.235Z,-4.95
2019-01-22T00:06:54.738Z,-4.85
2019-01-22T00:09:28.998Z,-4.79
2019-01-22T00:12:04.121Z,-4.89
2019-01-22T00:14:39.709Z,-4.67
2019-01-22T00:17:13.840Z,-4.38
2019-01-22T00:19:47.635Z,-4.34
2019-01-22T00:22:21.942Z,-4.14
2019-01-22T00:24:57.658Z,-4.09
2019-01-22T00:27:31.852Z,-4.09
2019-01-22T00:30:07.679Z,-4.21
2019-01-22T00:32:43.360Z,-4.07
2019-01-22T00:35:18.877Z,-4.08
2019-01-22T00:37:52.739Z,-3.96
2019-01-22T00:40:26.395Z,-3.79
2019-01-22T00:43:01.383Z,-3.70
2019-01-22T00:45:36.055Z,-3.67
2019-01-22T00:48:11.606Z,-3.46
2019-01-22T00:50:45.993Z,-3.41
2019-01-22T00:53:21.529Z,-3.32
2019-01-22T00:55:58.996Z,-3.06
2019-01-22T00:58:33.107Z,-2.87
2019-01-22T01:01:08.651Z,-2.97
2019-01-22T01:03:43.701Z,-2.90
2019-01-22T01:06:18.006Z,-2.87
2019-01-22T01:08:52.016Z,-2.72
2019-01-22T01:11:25.794Z,-2.44
2019-01-22T01:13:59.547Z,-2.50
2019-01-22T01:16:33.466Z,-2.37
2019-01-22T01:19:26.404Z,-2.26
2019-01-22T01:22:00.496Z,-2.17
2019-01-22T01:24:34.822Z,-2.33
2019-01-22T01:27:08.960Z,-2.04
2019-01-22T01:29:42.888Z,-2.01
2019-01-22T01:32:16.949Z,-2.18
2019-01-22T01:34:51.312Z,-2.32
2019-01-22T01:37:25.316Z,-2.42
2019-01-22T01:39:59.400Z,-2.29
2019-01-22T01:42:33.343Z,-2.43
2019-01-22T01:45:10.305Z,-2.53
2019-01-22T01:47:44.575Z,-2.45
2019-01-22T01:50:19.476Z,-2.20
2019-01-22T01:52:53.419Z,-2.30
2019-01-22T01:55:27.707Z,-2.11
2019-01-22T01:58:01.951Z,-2.06
2019-01-22T02:00:37.129Z,-1.87
2019-01-22T02:03:13.808Z,-1.78
2019-01-22T02:05:47.634Z,-1.78
2019-01-22T02:08:22.933Z,-1.83
2019-01-22T02:10:58.151Z,-1.17
2019-01-22T02:13:53.320Z,-1.09
2019-01-22T02:16:59.241Z,-1.46
2019-01-22T02:19:42.094Z,-1.37
2019-01-22T02:22:36.294Z,-1.18
2019-01-22T02:25:15.010Z,-1.11
2019-01-22T02:27:56.781Z,-1.11
2019-01-22T02:30:45.079Z,-0.82
2019-01-22T02:33:48.639Z,-0.73
2019-01-22T02:36:39.539Z,-1.10
2019-01-22T02:39:24.619Z,-1.04
2019-01-22T02:42:04.519Z,-0.57
2019-01-22T02:45:20.256Z,-0.29
2019-01-22T02:48:05.630Z,0.17
2019-01-22T02:51:19.526Z,0.45
2019-01-22T02:53:59.055Z,0.16
2019-01-22T02:56:53.461Z,0.22
2019-01-22T02:59:50.368Z,0.20
2019-01-22T03:02:33.988Z,0.12
2019-01-22T03:05:30.834Z,-0.18
2019-01-22T03:08:47.976Z,-0.12
2019-01-22T03:11:33.110Z,0.10
2019-01-22T03:14:24.207Z,0.31
2019-01-22T03:17:05.965Z,0.24
2019-01-22T03:19:45.096Z,0.42
2019-01-22T03:22:36.258Z,0.60
2019-01-22T03:25:24.365Z,0.73
2019-01-22T03:28:03.456Z,0.49
2019-01-22T03:30:58.922Z,0.60
2019-01-22T03:33:44.405Z,1.16
2019-01-22T03:36:54.405Z,1.89
2019-01-22T03:43:08.451Z,1.73
2019-01-22T03:45:47.204Z,1.63
2019-01-22T03:49:18.259Z,1.26
2019-01-22T03:52:10.400Z,1.60
2019-01-22T03:55:11.737Z,1.14
2019-01-22T03:57:46.615Z,1.01
2019-01-22T04:00:24.723Z,1.05
2019-01-22T04:02:59.761Z,1.05
2019-01-22T04:05:35.423Z,1.08
2019-01-22T04:08:13.019Z,1.05
2019-01-22T04:10:47.780Z,0.94
2019-01-22T04:13:30.362Z,0.94
2019-01-22T04:16:07.611Z,1.25
2019-01-22T04:18:42.316Z,1.45
2019-01-22T04:21:18.654Z,1.74
2019-01-22T04:24:01.778Z,1.65
2019-01-22T04:26:53.226Z,1.61
2019-01-22T04:29:59.556Z,1.81
2019-01-22T04:33:07.734Z,1.79
2019-01-22T04:36:04.823Z,1.68
2019-01-22T04:38:41.447Z,1.90
2019-01-22T04:41:24.012Z,1.84
2019-01-22T04:44:24.574Z,1.87
2019-01-22T04:47:06.601Z,1.83
2019-01-22T04:50:23.495Z,2.02
2019-01-22T04:53:21.603Z,1.95
2019-01-22T04:56:26.629Z,1.96
2019-01-22T04:59:07.404Z,1.82
2019-01-22T05:01:59.273Z,1.80
2019-01-22T05:04:39.366Z,1.76
2019-01-22T05:07:51.555Z,1.84
2019-01-22T05:10:43.162Z,2.02
2019-01-22T05:13:25.793Z,2.20
2019-01-22T05:16:08.334Z,2.16
2019-01-22T05:19:03.671Z,2.16
2019-01-22T05:21:49.556Z,1.97
2019-01-22T05:24:58.214Z,1.92
2019-01-22T05:27:36.463Z,1.86
2019-01-22T05:30:37.584Z,1.98
2019-01-22T05:33:23.976Z,1.90
2019-01-22T05:36:09.316Z,1.85
2019-01-22T05:39:17.438Z,2.09
2019-01-22T05:42:15.727Z,2.02
2019-01-22T05:44:52.053Z,2.05
2019-01-22T05:47:51.414Z,2.03
2019-01-22T05:53:47.711Z,2.13
2019-01-22T05:56:26.886Z,2.07
2019-01-22T05:59:40.243Z,2.27
2019-01-22T06:02:16.064Z,2.26
2019-01-22T06:05:11.670Z,2.19
2019-01-22T06:08:06.493Z,2.08
2019-01-22T06:10:59.325Z,2.17
2019-01-22T06:13:51.159Z,2.09
2019-01-22T06:17:06.557Z,2.07
2019-01-22T06:20:01.948Z,1.97
2019-01-22T06:22:59.870Z,1.91
2019-01-22T06:26:08.727Z,1.91
2019-01-22T06:29:04.243Z,2.13
2019-01-22T06:31:43.101Z,2.04
2019-01-22T06:38:11.167Z,1.88
2019-01-22T06:41:25.009Z,1.94
2019-01-22T06:44:26.411Z,1.86
2019-01-22T06:47:16.577Z,1.93
2019-01-22T06:50:28.593Z,1.88
2019-01-22T06:53:20.894Z,1.78
2019-01-22T06:56:36.998Z,1.85
2019-01-22T06:59:21.779Z,1.88
2019-01-22T07:02:13.154Z,1.72
2019-01-22T07:04:58.471Z,1.61
2019-01-22T07:07:52.563Z,1.68
2019-01-22T07:10:34.429Z,1.78
2019-01-22T07:13:22.123Z,1.76
2019-01-22T07:16:31.756Z,1.71
2019-01-22T07:19:15.249Z,1.66
2019-01-22T07:21:56.688Z,1.68
2019-01-22T07:24:46.708Z,1.65
2019-01-22T07:27:42.822Z,1.60
2019-01-22T07:30:29.688Z,1.62
2019-01-22T07:33:30.294Z,1.59
2019-01-22T07:36:14.171Z,1.59
2019-01-22T07:38:59.525Z,1.59
2019-01-22T07:41:58.619Z,1.57
2019-01-22T07:44:35.703Z,1.63
2019-01-22T07:47:29.608Z,1.58
2019-01-22T07:50:22.191Z,1.54
2019-01-22T07:53:01.885Z,1.55
2019-01-22T07:55:53.356Z,1.53
2019-01-22T07:58:39.015Z,1.49
2019-01-22T08:01:19.273Z,1.45
2019-01-22T08:04:19.363Z,1.49
2019-01-22T08:07:23.584Z,1.43
2019-01-22T08:10:23.007Z,1.37
2019-01-22T08:12:59.453Z,1.30
2019-01-22T08:15:47.734Z,1.30
2019-01-22T08:18:56.968Z,1.28
2019-01-22T08:22:05.188Z,1.27
2019-01-22T08:24:50.308Z,1.24
2019-01-22T08:27:55.072Z,1.14
2019-01-22T08:30:46.100Z,1.21
2019-01-22T08:33:28.582Z,1.15
2019-01-22T08:36:10.781Z,1.15
2019-01-22T08:39:06.018Z,1.08
2019-01-22T08:42:00.995Z,1.09
2019-01-22T08:45:03.094Z,1.06
2019-01-22T08:48:28.480Z,0.98
2019-01-22T08:54:00.017Z,1.05
2019-01-22T08:56:58.020Z,0.94
2019-01-22T08:59:53.516Z,0.99
2019-01-22T09:03:01.646Z,0.91
2019-01-22T09:06:19.368Z,0.78
2019-01-22T09:09:15.385Z,0.75
2019-01-22T09:12:12.437Z,0.76
2019-01-22T09:14:54.783Z,0.77
2019-01-22T09:17:42.931Z,0.66
2019-01-22T09:20:39.094Z,0.50
2019-01-22T09:23:59.197Z,0.51
2019-01-22T09:26:52.949Z,0.56
2019-01-22T09:29:35.592Z,0.34
2019-01-22T09:32:35.127Z,0.26
2019-01-22T09:35:44.382Z,0.20
2019-01-22T09:38:21.735Z,0.11
2019-01-22T09:40:56.147Z,0.17
2019-01-22T09:43:34.338Z,0.07
2019-01-22T09:46:10.159Z,0.12
2019-01-22T09:48:45.244Z,0.16
2019-01-22T09:51:20.635Z,0.06
2019-01-22T09:53:54.787Z,0.02
2019-01-22T09:56:36.033Z,-0.16
2019-01-22T10:01:50.318Z,-0.04
2019-01-22T10:04:27.804Z,-0.10
2019-01-22T10:07:05.932Z,-0.11
2019-01-22T10:09:41.916Z,-0.18
2019-01-22T10:12:28.793Z,-0.24
2019-01-22T10:15:17.427Z,-0.31
2019-01-22T10:17:49.673Z,-0.34
2019-01-22T10:20:27.282Z,-0.34
2019-01-22T10:23:04.490Z,-0.41
2019-01-22T10:25:39.396Z,-0.45
2019-01-22T10:28:16.163Z,-0.52
2019-01-22T10:30:57.104Z,-0.60
2019-01-22T10:33:33.696Z,-0.63
2019-01-22T10:36:11.855Z,-0.73
2019-01-22T10:38:48.879Z,-0.71
2019-01-22T10:41:30.327Z,-0.85
2019-01-22T10:44:14.331Z,-0.96
2019-01-22T10:46:52.198Z,-1.01
2019-01-22T10:49:28.258Z,-0.95
2019-01-22T10:52:08.909Z,-1.13
2019-01-22T10:54:51.500Z,-1.12
2019-01-22T10:57:29.400Z,-1.15
2019-01-22T11:00:08.167Z,-1.13
2019-01-22T11:02:46.202Z,-1.08
2019-01-22T11:05:26.245Z,-1.17
2019-01-22T11:08:06.134Z,-1.24
2019-01-22T11:10:43.802Z,-1.27
2019-01-22T11:13:38.615Z,-1.37
2019-01-22T11:16:15.858Z,-1.45
2019-01-22T11:18:54.788Z,-1.54
2019-01-22T11:21:31.417Z,-1.58
2019-01-22T11:24:30.207Z,-1.71
2019-01-22T11:27:00.733Z,-1.76
2019-01-22T11:29:40.103Z,-1.75
2019-01-22T11:32:18.277Z,-1.86
2019-01-22T11:34:54.697Z,-2.01
2019-01-22T11:37:30.386Z,-2.07
2019-01-22T11:40:06.178Z,-2.09
2019-01-22T11:42:42.954Z,-2.11
2019-01-22T11:45:24.788Z,-2.17
2019-01-22T11:47:59.348Z,-2.25
2019-01-22T11:50:35.699Z,-2.28
2019-01-22T11:53:11.041Z,-2.32
2019-01-22T11:55:50.568Z,-2.35
2019-01-22T11:58:24.606Z,-2.38
2019-01-22T12:01:04.983Z,-2.37
2019-01-22T12:03:40.388Z,-2.39
2019-01-22T12:06:17.965Z,-2.47
2019-01-22T12:09:13.665Z,-2.50
2019-01-22T12:11:51.515Z,-2.44
2019-01-22T12:14:26.981Z,-2.40
2019-01-22T12:17:07.111Z,-2.45
2019-01-22T12:19:53.242Z,-2.49
2019-01-22T12:22:28.820Z,-2.47
2019-01-22T12:25:04.724Z,-2.50
2019-01-22T12:27:40.901Z,-2.41
2019-01-22T12:30:32.951Z,-2.39
2019-01-22T12:33:11.775Z,-2.40
2019-01-22T12:35:49.927Z,-2.48
2019-01-22T12:38:25.747Z,-2.44
2019-01-22T12:41:01.748Z,-2.49
2019-01-22T12:43:37.566Z,-2.52
2019-01-22T12:46:12.973Z,-2.53
2019-01-22T12:48:55.555Z,-2.48
2019-01-22T12:51:31.935Z,-2.61
2019-01-22T12:54:07.450Z,-2.49
2019-01-22T12:56:53.288Z,-2.35
2019-01-22T12:59:31.279Z,-2.44
2019-01-22T13:02:06.639Z,-2.50
2019-01-22T13:04:43.280Z,-2.56
2019-01-22T13:07:19.273Z,-2.57
2019-01-22T13:09:58.714Z,-2.54
2019-01-22T13:12:38.840Z,-2.52
2019-01-22T13:15:15.475Z,-2.46
2019-01-22T13:17:52.271Z,-2.58
2019-01-22T13:20:27.430Z,-2.59
2019-01-22T13:23:03.392Z,-2.63
2019-01-22T13:25:45.315Z,-2.67
2019-01-22T13:28:21.562Z,-2.67
2019-01-22T13:31:00.436Z,-2.67
2019-01-22T13:33:37.157Z,-2.69
2019-01-22T13:36:12.737Z,-2.79
2019-01-22T13:38:50.993Z,-2.76
2019-01-22T13:41:30.886Z,-2.79
2019-01-22T13:44:10.679Z,-2.79
2019-01-22T13:46:45.757Z,-2.64
2019-01-22T13:49:21.451Z,-2.62
2019-01-22T13:51:57.242Z,-2.76
2019-01-22T13:54:37.289Z,-2.82
2019-01-22T13:57:14.749Z,-3.02
2019-01-22T13:59:50.435Z,-3.08
2019-01-22T14:02:28.543Z,-3.13
2019-01-22T14:05:08.593Z,-3.15
2019-01-22T14:07:51.447Z,-3.05
2019-01-22T14:10:33.210Z,-3.07
2019-01-22T14:13:11.719Z,-2.99
2019-01-22T14:15:50.743Z,-2.72
2019-01-22T14:18:25.632Z,-2.51
2019-01-22T14:21:16.026Z,-2.64
2019-01-22T14:23:51.601Z,-2.62
2019-01-22T14:26:31.550Z,-2.53
2019-01-22T14:29:09.784Z,-2.52
2019-01-22T14:31:48.181Z,-2.54
2019-01-22T14:34:24.283Z,-2.42
2019-01-22T14:37:00.518Z,-2.45
2019-01-22T14:39:38.195Z,-2.50
2019-01-22T14:42:13.247Z,-2.59
2019-01-22T14:44:51.728Z,-2.59
2019-01-22T14:47:26.695Z,-2.56
2019-01-22T14:50:04.800Z,-2.58
2019-01-22T14:52:40.500Z,-2.59
2019-01-22T14:55:15.918Z,-2.60
2019-01-22T14:57:57.209Z,-2.80
2019-01-22T15:00:32.969Z,-2.82
2019-01-22T15:03:13.562Z,-2.78
2019-01-22T15:05:48.031Z,-2.75
2019-01-22T15:08:22.728Z,-2.78
2019-01-22T15:10:57.685Z,-2.84
2019-01-22T15:13:34.419Z,-3.06
2019-01-22T15:16:11.256Z,-3.06
2019-01-22T15:18:45.644Z,-3.06
2019-01-22T15:21:38.461Z,-3.06
2019-01-22T15:24:14.720Z,-3.22
2019-01-22T15:26:49.802Z,-3.37
2019-01-22T15:29:24.509Z,-3.47
2019-01-22T15:31:59.812Z,-3.45
2019-01-22T15:34:37.688Z,-3.43
2019-01-22T15:37:13.199Z,-3.60
2019-01-22T15:39:56.210Z,-3.57
2019-01-22T15:42:29.716Z,-3.69
2019-01-22T15:45:12.047Z,-3.64
2019-01-22T15:47:46.505Z,-3.55
2019-01-22T15:50:22.747Z,-3.70
2019-01-22T15:52:56.935Z,-3.76
2019-01-22T15:55:33.032Z,-3.91
2019-01-22T15:58:07.091Z,-3.93
2019-01-22T16:00:41.740Z,-3.90
2019-01-22T16:03:15.543Z,-3.85
2019-01-22T16:05:49.276Z,-3.89
2019-01-22T16:08:26.150Z,-3.86
2019-01-22T16:11:00.650Z,-3.91
2019-01-22T16:13:37.627Z,-3.83
2019-01-22T16:16:14.347Z,-3.78
2019-01-22T16:18:51.757Z,-3.77
2019-01-22T16:21:27.934Z,-3.92
2019-01-22T16:24:07.618Z,-4.00
2019-01-22T16:26:53.383Z,-4.00
2019-01-22T16:29:24.800Z,-3.89
2019-01-22T16:32:00.028Z,-4.06
2019-01-22T16:34:34.972Z,-4.06
2019-01-22T16:37:08.902Z,-4.11
2019-01-22T16:39:47.137Z,-4.19
2019-01-22T16:42:22.720Z,-4.16
2019-01-22T16:44:56.534Z,-4.23
2019-01-22T16:47:34.968Z,-4.24
2019-01-22T16:50:19.680Z,-4.37
2019-01-22T16:53:01.767Z,-4.36
2019-01-22T16:55:52.172Z,-4.50
2019-01-22T16:58:33.543Z,-4.49
2019-01-22T17:01:08.981Z,-4.69
2019-01-22T17:03:44.098Z,-4.93
2019-01-22T17:06:18.031Z,-4.80
2019-01-22T17:08:52.562Z,-4.71
2019-01-22T17:11:35.937Z,-4.74
2019-01-22T17:14:28.540Z,-4.98
2019-01-22T17:17:06.792Z,-4.96
2019-01-22T17:19:41.580Z,-5.12
2019-01-22T17:22:18.131Z,-5.04
2019-01-22T17:25:05.109Z,-5.07
2019-01-22T17:27:41.625Z,-5.04
2019-01-22T17:30:17.826Z,-5.05
2019-01-22T17:32:55.777Z,-5.22
2019-01-22T17:35:39.803Z,-5.40
2019-01-22T17:38:16.979Z,-5.37
2019-01-22T17:40:50.756Z,-5.38
2019-01-22T17:43:26.616Z,-5.32
2019-01-22T17:46:03.797Z,-5.54
2019-01-22T17:48:40.599Z,-5.62
2019-01-22T17:51:16.897Z,-5.59
2019-01-22T17:53:54.685Z,-5.62
2019-01-22T17:56:33.455Z,-5.70
2019-01-22T17:59:09.049Z,-5.72
2019-01-22T18:01:50.576Z,-5.74
2019-01-22T18:04:31.124Z,-5.87
2019-01-22T18:07:05.981Z,-5.91
2019-01-22T18:09:43.831Z,-5.81
2019-01-22T18:12:21.224Z,-5.74
2019-01-22T18:17:56.594Z,-5.87
2019-01-22T18:20:40.033Z,-6.00
2019-01-22T18:23:17.576Z,-6.03
2019-01-22T18:25:54.493Z,-6.05
2019-01-22T18:28:33.208Z,-6.18
2019-01-22T18:31:07.816Z,-6.19
2019-01-22T18:33:41.772Z,-6.35
2019-01-22T18:36:20.522Z,-6.24
2019-01-22T18:38:56.171Z,-6.24
2019-01-22T18:41:30.991Z,-6.30
2019-01-22T18:44:13.630Z,-6.22
2019-01-22T18:46:48.045Z,-6.25
2019-01-22T18:49:23.511Z,-6.21
2019-01-22T18:51:57.954Z,-6.18
2019-01-22T18:54:31.677Z,-6.25
2019-01-22T18:57:13.471Z,-6.30
2019-01-22T19:00:05.361Z,-6.32
2019-01-22T19:02:43.522Z,-6.21
2019-01-22T19:05:27.442Z,-6.19
2019-01-22T19:08:05.880Z,-6.36
2019-01-22T19:10:43.704Z,-6.25
2019-01-22T19:13:26.421Z,-6.21
2019-01-22T19:16:00.175Z,-6.32
2019-01-22T19:18:33.939Z,-6.38
2019-01-22T19:21:11.805Z,-6.50
2019-01-22T19:23:46.397Z,-6.45
2019-01-22T19:26:20.335Z,-6.45
2019-01-22T19:28:54.919Z,-6.51
2019-01-22T19:31:32.750Z,-6.36
2019-01-22T19:34:07.808Z,-6.45
2019-01-22T19:36:42.609Z,-6.51
2019-01-22T19:39:18.023Z,-6.57
2019-01-22T19:41:53.047Z,-6.45
2019-01-22T19:44:27.681Z,-6.48
2019-01-22T19:47:02.961Z,-6.46
2019-01-22T19:49:38.658Z,-6.59
2019-01-22T19:52:11.973Z,-6.57
2019-01-22T19:54:46.354Z,-6.56
2019-01-22T19:57:20.132Z,-6.64
2019-01-22T19:59:54.766Z,-6.68
2019-01-22T20:02:31.562Z,-6.88
2019-01-22T20:05:06.234Z,-6.84
2019-01-22T20:07:41.462Z,-6.81
2019-01-22T20:10:17.210Z,-6.83
2019-01-22T20:12:51.649Z,-7.16
2019-01-22T20:15:27.580Z,-7.17
2019-01-22T20:18:02.667Z,-7.09
2019-01-22T20:20:36.723Z,-7.12
2019-01-22T20:23:11.912Z,-7.08
2019-01-22T20:25:48.504Z,-7.08
2019-01-22T20:28:22.604Z,-7.00
2019-01-22T20:30:56.356Z,-7.13
2019-01-22T20:33:30.091Z,-7.10
2019-01-22T20:36:03.408Z,-7.07
2019-01-22T20:38:37.359Z,-7.31
2019-01-22T20:41:11.282Z,-7.36
2019-01-22T20:43:46.063Z,-7.27
2019-01-22T20:46:19.677Z,-7.36
2019-01-22T20:48:53.280Z,-7.38
2019-01-22T20:51:27.298Z,-7.49
2019-01-22T20:54:00.620Z,-7.48
2019-01-22T20:56:34.183Z,-7.53
2019-01-22T20:59:07.318Z,-7.30
2019-01-22T21:01:41.281Z,-7.40
2019-01-22T21:04:14.963Z,-7.45
2019-01-22T21:06:50.891Z,-7.43
2019-01-22T21:09:24.854Z,-7.59
2019-01-22T21:11:58.554Z,-7.49
2019-01-22T21:14:32.449Z,-7.63
2019-01-22T21:17:06.024Z,-7.86
2019-01-22T21:19:39.771Z,-7.84
2019-01-22T21:22:13.313Z,-7.93
2019-01-22T21:24:46.627Z,-7.91
2019-01-22T21:27:20.169Z,-7.84
2019-01-22T21:29:55.241Z,-7.85
2019-01-22T21:32:28.649Z,-8.00
2019-01-22T21:35:03.725Z,-7.93
2019-01-22T21:37:37.434Z,-7.96
2019-01-22T21:40:13.410Z,-7.97
2019-01-22T21:42:47.065Z,-7.84
2019-01-22T21:48:31.613Z,-7.99
2019-01-22T21:51:05.542Z,-7.95
2019-01-22T21:53:59.063Z,-7.91
2019-01-22T21:56:33.903Z,-8.06
2019-01-22T21:59:08.569Z,-8.08
2019-01-22T22:01:43.052Z,-8.10
2019-01-22T22:04:35.845Z,-8.05
2019-01-22T22:07:09.456Z,-8.13
2019-01-22T22:09:43.675Z,-7.96
2019-01-22T22:12:18.468Z,-8.26
2019-01-22T22:14:52.135Z,-8.34
2019-01-22T22:17:25.695Z,-8.37
2019-01-22T22:20:00.258Z,-8.35
2019-01-22T22:22:33.760Z,-8.40
2019-01-22T22:25:10.316Z,-8.29
2019-01-22T22:27:44.048Z,-8.26
2019-01-22T22:30:37.243Z,-8.40
2019-01-22T22:33:12.878Z,-8.49
2019-01-22T22:35:47.342Z,-8.36
2019-01-22T22:38:24.174Z,-8.29
2019-01-22T22:40:58.488Z,-8.39
2019-01-22T22:43:32.737Z,-8.44
2019-01-22T22:46:07.965Z,-8.54
2019-01-22T22:48:43.414Z,-8.46
2019-01-22T22:51:20.320Z,-8.52
2019-01-22T22:53:54.404Z,-8.61
2019-01-22T22:56:29.485Z,-8.52
2019-01-22T22:59:04.086Z,-8.52
2019-01-22T23:01:40.972Z,-8.48
2019-01-22T23:04:14.664Z,-8.53
2019-01-22T23:06:48.628Z,-8.49
2019-01-22T23:09:22.856Z,-8.42
2019-01-22T23:11:57.977Z,-8.41
2019-01-22T23:14:32.442Z,-8.49
2019-01-22T23:17:07.075Z,-8.58
2019-01-22T23:19:41.110Z,-8.45
2019-01-22T23:22:15.874Z,-8.46
2019-01-22T23:24:49.944Z,-8.65
2019-01-22T23:27:24.094Z,-8.77
2019-01-22T23:29:59.914Z,-8.76
2019-01-22T23:32:39.713Z,-8.54
2019-01-22T23:35:13.873Z,-8.60
2019-01-22T23:37:48.637Z,-8.51
2019-01-22T23:40:23.690Z,-8.66
2019-01-22T23:43:07.560Z,-8.58
2019-01-22T23:45:42.566Z,-8.53
2019-01-22T23:48:16.731Z,-8.47
2019-01-22T23:50:54.417Z,-8.44
2019-01-22T23:53:28.515Z,-8.46
2019-01-22T23:56:02.770Z,-8.58
2019-01-22T23:58:36.566Z,-8.48
